Time,TemperatureF,DewpointF,PressureIn,WindDirection,WindDirectionDegrees,WindSpeedMPH,WindSpeedGustMPH,Humidity,HourlyPrecipIn,Conditions,Clouds,dailyrainin,SoftwareType,DateUTC
2013-09-10 00:00:00,68.0,65.0,30.15,East,84,0.0,0.0,90,0.00,OVC,,0.00,WeatherDisplay:10.37,2013-09-10 04:00:00,
2013-09-10 00:01:00,68.0,65.0,30.15,South,180,0.0,0.0,90,0.00,OVC,,0.00,WeatherDisplay:10.37,2013-09-10 04:01:00,
2013-09-10 00:02:00,68.0,65.0,30.15,NNE,22,0.0,0.0,90,0.00,OVC,,0.00,WeatherDisplay:10.37,2013-09-10 04:02:00,
2013-09-10 00:07:00,68.0,65.0,30.15,South,180,1.2,1.2,90,0.00,OVC,,0.00,WeatherDisplay:10.37,2013-09-10 04:07:00,
2013-09-10 00:12:00,68.0,65.0,30.15,SSW,202,0.0,0.0,90,0.00,OVC,,0.00,WeatherDisplay:10.37,2013-09-10 04:12:00,
2013-09-10 00:17:00,68.2,65.2,30.15,SSE,158,4.7,4.7,90,0.00,OVC,,0.00,WeatherDisplay:10.37,2013-09-10 04:17:00,
2013-09-10 00:22:00,68.2,65.2,30.15,ESE,112,0.0,0.0,90,0.00,OVC,,0.00,WeatherDisplay:10.37,2013-09-10 04:22:00,
2013-09-10 00:27:00,68.2,65.2,30.14,SW,225,2.7,2.7,90,0.00,OVC,,0.00,WeatherDisplay:10.37,2013-09-10 04:27:00,
2013-09-10 00:32:00,68.2,65.2,30.14,SW,225,2.2,2.2,90,0.00,OVC,,0.00,WeatherDisplay:10.37,2013-09-10 04:32:00,
2013-09-10 00:37:00,68.2,65.2,30.14,NNE,22,0.0,0.0,90,0.00,OVC,,0.00,WeatherDisplay:10.37,2013-09-10 04:37:00,
2013-09-10 00:42:00,68.2,65.2,30.14,NNE,22,3.2,3.2,90,0.00,OVC,,0.00,WeatherDisplay:10.37,2013-09-10 04:42:00,
2013-09-10 00:47:00,68.2,65.2,30.14,SE,135,0.0,0.0,90,0.00,OVC,,0.00,WeatherDisplay:10.37,2013-09-10 04:47:00,
2013-09-10 00:52:00,68.2,65.5,30.14,ESE,112,3.7,3.7,91,0.00,OVC,,0.00,WeatherDisplay:10.37,2013-09-10 04:52:00,
2013-09-10 00:57:00,68.2,65.5,30.14,SSE,158,4.6,4.6,91,0.00,OVC,,0.00,WeatherDisplay:10.37,2013-09-10 04:57:00,
2013-09-10 01:02:00,68.2,65.5,30.14,West,270,4.2,4.2,91,0.00,OVC,,0.00,WeatherDisplay:10.37,2013-09-10 05:02:00,
2013-09-10 01:07:00,68.2,65.5,30.14,NE,45,2.3,2.3,91,0.00,OVC,,0.00,WeatherDisplay:10.37,2013-09-10 05:07:00,
2013-09-10 01:12:00,68.4,65.7,30.14,South,180,1.2,1.2,91,0.00,OVC,,0.00,WeatherDisplay:10.37,2013-09-10 05:12:00,
2013-09-10 01:17:00,68.4,65.7,30.14,West,270,4.6,4.6,91,0.00,OVC,,0.00,WeatherDisplay:10.37,2013-09-10 05:17:00,
2013-09-10 01:22:00,68.4,65.7,30.14,WNW,292,1.7,1.7,91,0.00,OVC,,0.00,WeatherDisplay:10.37,2013-09-10 05:22:00,
2013-09-10 01:27:00,68.4,65.7,30.15,SSE,158,2.3,2.3,91,0.00,OVC,,0.00,WeatherDisplay:10.37,2013-09-10 05:27:00,
2013-09-10 01:32:00,68.4,65.7,30.15,ESE,112,3.5,3.5,91,0.00,OVC,,0.00,WeatherDisplay:10.37,2013-09-10 05:32:00,
2013-09-10 01:37:00,68.4,65.7,30.14,SW,225,2.3,0.0,91,0.00,OVC,,0.00,WeatherDisplay:10.37,2013-09-10 05:37:00,
2013-09-10 01:42:00,68.4,65.7,30.14,NE,45,3.5,3.5,91,0.00,OVC,,0.00,WeatherDisplay:10.37,2013-09-10 05:42:00,
2013-09-10 01:47:00,68.4,65.7,30.14,ESE,112,2.3,0.0,91,0.00,OVC,,0.00,WeatherDisplay:10.37,2013-09-10 05:47:00,
2013-09-10 01:52:00,68.4,65.7,30.14,ENE,68,2.3,2.3,91,0.00,OVC,,0.00,WeatherDisplay:10.37,2013-09-10 05:52:00,
2013-09-10 01:57:00,68.4,66.0,30.14,SW,225,1.2,0.0,92,0.00,OVC,,0.00,WeatherDisplay:10.37,2013-09-10 05:57:00,
2013-09-10 02:02:00,68.4,66.0,30.13,SW,225,0.0,0.0,92,0.00,OVC,,0.00,WeatherDisplay:10.37,2013-09-10 06:02:00,
2013-09-10 02:07:00,68.4,66.0,30.13,East,90,2.3,2.3,92,0.00,OVC,,0.00,WeatherDisplay:10.37,2013-09-10 06:07:00,
2013-09-10 02:12:00,68.4,66.0,30.13,North,360,2.3,2.3,92,0.00,OVC,,0.00,WeatherDisplay:10.37,2013-09-10 06:12:00,
2013-09-10 02:17:00,68.4,66.0,30.13,SW,225,4.6,4.6,92,0.00,OVC,,0.00,WeatherDisplay:10.37,2013-09-10 06:17:00,
2013-09-10 02:22:00,68.4,66.0,30.13,South,180,3.2,3.2,92,0.00,OVC,,0.00,WeatherDisplay:10.37,2013-09-10 06:22:00,
2013-09-10 02:27:00,68.5,66.1,30.13,SSW,202,3.5,3.8,92,0.00,OVC,,0.00,WeatherDisplay:10.37,2013-09-10 06:27:00,
2013-09-10 02:32:00,68.5,66.1,30.13,ESE,112,4.6,4.6,92,0.00,OVC,,0.00,WeatherDisplay:10.37,2013-09-10 06:32:00,
2013-09-10 02:37:00,68.5,66.4,30.12,SSW,202,4.7,4.7,93,0.00,OVC,,0.00,WeatherDisplay:10.37,2013-09-10 06:37:00,
2013-09-10 02:43:00,68.5,66.4,30.12,SE,135,2.3,2.3,93,0.00,OVC,,0.00,WeatherDisplay:10.37,2013-09-10 06:43:00,
2013-09-10 02:48:00,68.5,66.4,30.12,East,90,4.6,4.6,93,0.00,OVC,,0.00,WeatherDisplay:10.37,2013-09-10 06:48:00,
2013-09-10 02:53:00,68.5,66.4,30.12,South,180,2.3,2.3,93,0.00,OVC,,0.00,WeatherDisplay:10.37,2013-09-10 06:53:00,
2013-09-10 02:58:00,68.7,66.6,30.12,West,270,4.6,4.6,93,0.00,OVC,,0.00,WeatherDisplay:10.37,2013-09-10 06:58:00,
2013-09-10 03:03:00,68.7,66.6,30.12,ESE,112,0.0,0.0,93,0.00,OVC,,0.00,WeatherDisplay:10.37,2013-09-10 07:03:00,
2013-09-10 03:08:00,68.7,66.6,30.12,SE,135,2.3,2.3,93,0.00,OVC,,0.00,WeatherDisplay:10.37,2013-09-10 07:08:00,
2013-09-10 03:13:00,68.7,66.6,30.12,ENE,68,0.0,0.0,93,0.00,OVC,,0.00,WeatherDisplay:10.37,2013-09-10 07:13:00,
2013-09-10 03:18:00,68.7,66.9,30.13,South,180,5.8,5.8,94,0.00,OVC,,0.00,WeatherDisplay:10.37,2013-09-10 07:18:00,
2013-09-10 03:23:00,69.1,67.3,30.13,SSW,202,3.5,3.5,94,0.00,OVC,,0.00,WeatherDisplay:10.37,2013-09-10 07:23:00,
2013-09-10 03:28:00,69.3,67.5,30.12,West,270,4.6,4.6,94,0.00,OVC,,0.00,WeatherDisplay:10.37,2013-09-10 07:28:00,
2013-09-10 03:33:00,69.1,67.3,30.12,SW,225,3.5,3.5,94,0.00,OVC,,0.00,WeatherDisplay:10.37,2013-09-10 07:33:00,
2013-09-10 03:38:00,69.1,67.3,30.12,WNW,292,1.2,1.2,94,0.00,OVC,,0.00,WeatherDisplay:10.37,2013-09-10 07:38:00,
2013-09-10 03:43:00,69.1,67.3,30.12,West,270,2.7,2.7,94,0.00,OVC,,0.00,WeatherDisplay:10.37,2013-09-10 07:43:00,
2013-09-10 03:48:00,69.1,67.3,30.12,South,180,2.3,2.3,94,0.00,OVC,,0.00,WeatherDisplay:10.37,2013-09-10 07:48:00,
2013-09-10 03:53:00,69.1,67.3,30.12,South,180,1.2,1.2,94,0.00,OVC,,0.00,WeatherDisplay:10.37,2013-09-10 07:53:00,
2013-09-10 03:58:00,69.1,67.3,30.12,SW,225,2.3,2.3,94,0.00,OVC,,0.00,WeatherDisplay:10.37,2013-09-10 07:58:00,
2013-09-10 04:03:00,69.1,67.3,30.12,South,180,2.3,2.3,94,0.00,OVC,,0.00,WeatherDisplay:10.37,2013-09-10 08:03:00,
2013-09-10 04:08:00,69.1,67.3,30.12,WSW,248,3.7,3.7,94,0.00,OVC,,0.00,WeatherDisplay:10.37,2013-09-10 08:08:00,
2013-09-10 04:13:00,69.1,67.3,30.12,West,270,0.0,0.0,94,0.00,OVC,,0.00,WeatherDisplay:10.37,2013-09-10 08:13:00,
2013-09-10 04:18:00,68.9,67.1,30.12,SSE,158,0.0,0.0,94,0.00,OVC,,0.00,WeatherDisplay:10.37,2013-09-10 08:18:00,
2013-09-10 04:23:00,68.9,67.1,30.12,NNW,338,0.0,0.0,94,0.00,OVC,,0.00,WeatherDisplay:10.37,2013-09-10 08:23:00,
2013-09-10 04:28:00,68.9,67.1,30.12,NW,315,1.7,1.7,94,0.00,OVC,,0.00,WeatherDisplay:10.37,2013-09-10 08:28:00,
2013-09-10 04:33:00,68.9,67.1,30.12,SE,135,1.2,0.0,94,0.00,OVC,,0.00,WeatherDisplay:10.37,2013-09-10 08:33:00,
2013-09-10 04:38:00,68.9,67.1,30.12,NNE,22,0.0,0.0,94,0.00,OVC,,0.00,WeatherDisplay:10.37,2013-09-10 08:38:00,
2013-09-10 04:43:00,68.9,67.4,30.12,ESE,112,1.2,1.2,95,0.00,OVC,,0.00,WeatherDisplay:10.37,2013-09-10 08:43:00,
2013-09-10 04:48:00,68.9,67.4,30.12,SSE,158,0.0,0.0,95,0.00,OVC,,0.00,WeatherDisplay:10.37,2013-09-10 08:48:00,
2013-09-10 04:53:00,69.1,67.6,30.13,NNW,338,0.0,0.0,95,0.00,OVC,,0.00,WeatherDisplay:10.37,2013-09-10 08:53:00,
2013-09-10 04:58:00,69.1,67.6,30.13,ENE,68,0.0,0.0,95,0.00,OVC,,0.00,WeatherDisplay:10.37,2013-09-10 08:58:00,
2013-09-10 05:03:00,69.1,67.6,30.13,NNE,22,0.0,0.0,95,0.00,OVC,,0.00,WeatherDisplay:10.37,2013-09-10 09:03:00,
2013-09-10 05:08:00,69.3,67.8,30.13,NE,45,0.0,0.0,95,0.00,OVC,,0.00,WeatherDisplay:10.37,2013-09-10 09:08:00,
2013-09-10 05:13:00,69.3,67.8,30.13,NNW,338,0.0,0.0,95,0.00,OVC,,0.00,WeatherDisplay:10.37,2013-09-10 09:13:00,
2013-09-10 05:18:00,69.4,67.9,30.13,NNE,22,2.3,2.3,95,0.00,OVC,,0.00,WeatherDisplay:10.37,2013-09-10 09:18:00,
2013-09-10 05:23:00,69.4,67.6,30.13,East,90,0.0,0.0,94,0.00,OVC,,0.00,WeatherDisplay:10.37,2013-09-10 09:23:00,
2013-09-10 05:28:00,69.4,67.6,30.14,East,90,0.0,0.0,94,0.00,OVC,,0.00,WeatherDisplay:10.37,2013-09-10 09:28:00,
2013-09-10 05:33:00,69.4,67.9,30.14,ENE,68,0.0,0.0,95,0.00,OVC,,0.00,WeatherDisplay:10.37,2013-09-10 09:33:00,
2013-09-10 05:38:00,69.4,67.6,30.14,ENE,68,0.0,0.0,94,0.00,OVC,,0.00,WeatherDisplay:10.37,2013-09-10 09:38:00,
2013-09-10 05:43:00,69.4,67.6,30.14,ENE,68,0.0,0.0,94,0.00,OVC,,0.00,WeatherDisplay:10.37,2013-09-10 09:43:00,
2013-09-10 05:48:00,69.4,67.6,30.14,South,180,0.0,0.0,94,0.00,OVC,,0.00,WeatherDisplay:10.37,2013-09-10 09:48:00,
2013-09-10 05:53:00,69.4,67.6,30.14,SSE,158,0.0,0.0,94,0.00,OVC,,0.00,WeatherDisplay:10.37,2013-09-10 09:53:00,
2013-09-10 05:58:00,69.4,67.6,30.14,SSW,202,0.0,0.0,94,0.00,OVC,,0.00,WeatherDisplay:10.37,2013-09-10 09:58:00,
2013-09-10 06:03:00,69.4,67.6,30.14,West,270,0.0,0.0,94,0.00,OVC,,0.00,WeatherDisplay:10.37,2013-09-10 10:03:00,
2013-09-10 06:08:00,69.4,67.6,30.14,NE,45,0.0,0.0,94,0.00,OVC,,0.00,WeatherDisplay:10.37,2013-09-10 10:08:00,
2013-09-10 06:13:00,69.4,67.6,30.14,NW,315,0.0,0.0,94,0.00,OVC,,0.00,WeatherDisplay:10.37,2013-09-10 10:13:00,
2013-09-10 06:18:00,69.4,67.6,30.15,ESE,112,0.0,0.0,94,0.00,OVC,,0.00,WeatherDisplay:10.37,2013-09-10 10:18:00,
2013-09-10 06:23:00,69.6,67.8,30.15,NE,45,0.0,0.0,94,0.00,OVC,,0.00,WeatherDisplay:10.37,2013-09-10 10:23:00,
2013-09-10 06:28:00,69.6,67.8,30.15,West,270,0.0,0.0,94,0.00,OVC,,0.00,WeatherDisplay:10.37,2013-09-10 10:28:00,
2013-09-10 06:33:00,69.8,68.0,30.15,West,270,0.0,0.0,94,0.00,OVC,,0.00,WeatherDisplay:10.37,2013-09-10 10:33:00,
2013-09-10 06:38:00,69.8,68.0,30.15,SSE,158,0.0,0.0,94,0.00,OVC,,0.00,WeatherDisplay:10.37,2013-09-10 10:38:00,
2013-09-10 06:43:00,69.8,68.0,30.15,ESE,112,0.0,0.0,94,0.00,OVC,,0.00,WeatherDisplay:10.37,2013-09-10 10:43:00,
2013-09-10 06:48:00,69.8,68.0,30.15,East,90,0.0,0.0,94,0.00,OVC,,0.00,WeatherDisplay:10.37,2013-09-10 10:48:00,
2013-09-10 06:53:00,69.8,68.0,30.15,West,270,0.0,0.0,94,0.00,OVC,,0.00,WeatherDisplay:10.37,2013-09-10 10:53:00,
2013-09-10 06:58:00,70.0,68.2,30.15,SE,135,0.0,0.0,94,0.00,OVC,,0.00,WeatherDisplay:10.37,2013-09-10 10:58:00,
2013-09-10 07:03:00,70.0,68.2,30.15,East,90,0.0,0.0,94,0.00,OVC,,0.00,WeatherDisplay:10.37,2013-09-10 11:03:00,
2013-09-10 07:08:00,70.2,68.4,30.15,East,90,0.0,0.0,94,0.00,OVC,,0.00,WeatherDisplay:10.37,2013-09-10 11:08:00,
2013-09-10 07:13:00,70.2,68.4,30.15,NE,45,0.0,0.0,94,0.00,OVC,,0.00,WeatherDisplay:10.37,2013-09-10 11:13:00,
2013-09-10 07:18:00,70.3,68.5,30.15,NNE,22,0.0,0.0,94,0.00,OVC,,0.00,WeatherDisplay:10.37,2013-09-10 11:18:00,
2013-09-10 07:23:00,70.5,68.7,30.15,East,90,0.0,0.0,94,0.00,OVC,,0.00,WeatherDisplay:10.37,2013-09-10 11:23:00,
2013-09-10 07:28:00,70.5,68.7,30.15,East,90,0.0,0.0,94,0.00,OVC,,0.00,WeatherDisplay:10.37,2013-09-10 11:28:00,
2013-09-10 07:33:00,70.9,69.1,30.15,ENE,68,0.0,0.0,94,0.00,OVC,,0.00,WeatherDisplay:10.37,2013-09-10 11:33:00,
2013-09-10 07:38:00,71.1,69.3,30.15,NW,315,0.0,0.0,94,0.00,OVC,,0.00,WeatherDisplay:10.37,2013-09-10 11:38:00,
2013-09-10 07:44:00,71.4,69.6,30.15,WSW,248,2.7,2.7,94,0.00,OVC,,0.00,WeatherDisplay:10.37,2013-09-10 11:44:00,
2013-09-10 07:49:00,71.8,70.0,30.15,SW,225,2.3,2.3,94,0.00,OVC,,0.00,WeatherDisplay:10.37,2013-09-10 11:49:00,
2013-09-10 07:54:00,72.0,69.9,30.15,SW,225,2.3,2.3,93,0.00,OVC,,0.00,WeatherDisplay:10.37,2013-09-10 11:54:00,
2013-09-10 07:59:00,72.1,69.6,30.15,South,180,2.3,2.3,92,0.00,OVC,,0.00,WeatherDisplay:10.37,2013-09-10 11:59:00,
2013-09-10 08:04:00,72.3,69.8,30.14,South,180,3.5,3.5,92,0.00,OVC,,0.00,WeatherDisplay:10.37,2013-09-10 12:04:00,
2013-09-10 08:09:00,72.5,70.0,30.14,WSW,248,1.7,1.7,92,0.00,OVC,,0.00,WeatherDisplay:10.37,2013-09-10 12:09:00,
2013-09-10 08:14:00,72.7,70.2,30.15,WSW,248,1.2,1.2,92,0.00,OVC,,0.00,WeatherDisplay:10.37,2013-09-10 12:14:00,
2013-09-10 08:19:00,73.2,70.4,30.15,WNW,292,1.2,1.2,91,0.00,OVC,,0.00,WeatherDisplay:10.37,2013-09-10 12:19:00,
2013-09-10 08:24:00,73.6,70.8,30.15,South,180,3.2,3.2,91,0.00,OVC,,0.00,WeatherDisplay:10.37,2013-09-10 12:24:00,
2013-09-10 08:29:00,73.8,70.7,30.15,SSE,158,2.3,2.3,90,0.00,OVC,,0.00,WeatherDisplay:10.37,2013-09-10 12:29:00,
2013-09-10 08:34:00,74.1,71.0,30.15,West,270,1.2,1.2,90,0.00,OVC,,0.00,WeatherDisplay:10.37,2013-09-10 12:34:00,
2013-09-10 08:39:00,74.5,71.0,30.15,SSW,202,3.5,3.5,89,0.00,OVC,,0.00,WeatherDisplay:10.37,2013-09-10 12:39:00,
2013-09-10 08:44:00,74.8,71.0,30.15,WSW,248,2.2,2.2,88,0.00,OVC,,0.00,WeatherDisplay:10.37,2013-09-10 12:44:00,
2013-09-10 08:49:00,75.0,71.2,30.15,WSW,248,2.3,2.3,88,0.00,OVC,,0.00,WeatherDisplay:10.37,2013-09-10 12:49:00,
2013-09-10 08:54:00,75.6,71.5,30.15,North,360,1.2,1.2,87,0.00,OVC,,0.00,WeatherDisplay:10.37,2013-09-10 12:54:00,
2013-09-10 08:59:00,75.7,71.2,30.15,West,270,5.8,5.8,86,0.00,OVC,,0.00,WeatherDisplay:10.37,2013-09-10 12:59:00,
2013-09-10 09:04:00,75.6,71.1,30.15,North,360,2.3,2.3,86,0.00,OVC,,0.00,WeatherDisplay:10.37,2013-09-10 13:04:00,
2013-09-10 09:09:00,75.7,71.2,30.15,South,180,4.6,4.6,86,0.00,OVC,,0.00,WeatherDisplay:10.37,2013-09-10 13:09:00,
2013-09-10 09:14:00,75.9,71.4,30.15,WNW,292,5.8,5.8,86,0.00,OVC,,0.00,WeatherDisplay:10.37,2013-09-10 13:14:00,
2013-09-10 09:19:00,75.7,70.9,30.15,WNW,292,6.9,6.9,85,0.00,OVC,,0.00,WeatherDisplay:10.37,2013-09-10 13:19:00,
2013-09-10 09:24:00,75.9,71.1,30.15,SSE,158,4.7,4.7,85,0.00,OVC,,0.00,WeatherDisplay:10.37,2013-09-10 13:24:00,
2013-09-10 09:29:00,76.1,71.3,30.15,WSW,248,3.5,3.5,85,0.00,OVC,,0.00,WeatherDisplay:10.37,2013-09-10 13:29:00,
2013-09-10 09:34:00,76.3,71.5,30.15,NE,45,4.6,4.6,85,0.00,OVC,,0.00,WeatherDisplay:10.37,2013-09-10 13:34:00,
2013-09-10 09:39:00,76.5,71.3,30.15,SSW,202,6.9,6.9,84,0.00,OVC,,0.00,WeatherDisplay:10.37,2013-09-10 13:39:00,
2013-09-10 09:44:00,77.0,71.4,30.15,SSW,202,3.7,3.7,83,0.00,OVC,,0.00,WeatherDisplay:10.37,2013-09-10 13:44:00,
2013-09-10 09:49:00,77.4,71.8,30.16,SW,225,2.7,2.7,83,0.00,OVC,,0.00,WeatherDisplay:10.37,2013-09-10 13:49:00,
2013-09-10 09:54:00,77.7,71.8,30.16,WSW,248,4.6,4.6,82,0.00,OVC,,0.00,WeatherDisplay:10.37,2013-09-10 13:54:00,
2013-09-10 09:59:00,77.7,71.8,30.16,SSE,158,8.1,8.1,82,0.00,OVC,,0.00,WeatherDisplay:10.37,2013-09-10 13:59:00,
2013-09-10 10:04:00,78.1,71.8,30.16,SW,225,5.8,5.8,81,0.00,SCT,,0.00,WeatherDisplay:10.37,2013-09-10 14:04:00,
2013-09-10 10:09:00,78.3,71.6,30.16,ESE,112,8.1,8.1,80,0.00,SCT,,0.00,WeatherDisplay:10.37,2013-09-10 14:09:00,
2013-09-10 10:14:00,78.6,71.5,30.16,ESE,112,5.8,5.8,79,0.00,SCT,,0.00,WeatherDisplay:10.37,2013-09-10 14:14:00,
2013-09-10 10:19:00,78.6,71.9,30.16,SE,135,3.5,3.5,80,0.00,SCT,,0.00,WeatherDisplay:10.37,2013-09-10 14:19:00,
2013-09-10 10:24:00,79.2,72.1,30.16,SW,225,4.6,4.6,79,0.00,SCT,,0.00,WeatherDisplay:10.37,2013-09-10 14:24:00,
2013-09-10 10:29:00,79.5,72.0,30.16,South,180,3.5,3.5,78,0.00,SCT,,0.00,WeatherDisplay:10.37,2013-09-10 14:29:00,
2013-09-10 10:34:00,79.7,72.2,30.16,SSW,202,4.6,4.6,78,0.00,SCT,,0.00,WeatherDisplay:10.37,2013-09-10 14:34:00,
2013-09-10 10:39:00,79.9,72.4,30.16,NNE,22,2.3,2.3,78,0.00,SCT,,0.00,WeatherDisplay:10.37,2013-09-10 14:39:00,
2013-09-10 10:44:00,79.7,71.8,30.16,NW,315,3.2,3.2,77,0.00,SCT,,0.00,WeatherDisplay:10.37,2013-09-10 14:44:00,
2013-09-10 10:49:00,79.7,72.2,30.15,NNW,338,1.2,1.2,78,0.00,SCT,,0.00,WeatherDisplay:10.37,2013-09-10 14:49:00,
2013-09-10 10:54:00,80.2,72.7,30.15,West,270,1.2,1.2,78,0.00,SCT,,0.00,WeatherDisplay:10.37,2013-09-10 14:54:00,
2013-09-10 10:59:00,80.6,72.3,30.15,South,180,4.6,4.6,76,0.00,SCT,,0.00,WeatherDisplay:10.37,2013-09-10 14:59:00,
2013-09-10 11:05:00,81.5,72.8,30.15,SSW,202,3.5,3.5,75,0.00,CLR,,0.00,WeatherDisplay:10.37,2013-09-10 15:05:00,
2013-09-10 11:10:00,82.1,72.6,30.15,SW,217,3.0,0.0,73,0.00,CLR,,0.00,WeatherDisplay:10.37,2013-09-10 15:10:00,
2013-09-10 11:14:00,82.6,73.1,30.15,South,180,4.2,4.2,73,0.00,CLR,,0.00,WeatherDisplay:10.37,2013-09-10 15:14:00,
2013-09-10 11:20:00,82.2,72.3,30.15,SSE,158,5.8,5.8,72,0.00,CLR,,0.00,WeatherDisplay:10.37,2013-09-10 15:20:00,
2013-09-10 11:25:00,82.6,71.8,30.14,SSW,197,3.0,0.0,70,0.00,CLR,,0.00,WeatherDisplay:10.37,2013-09-10 15:25:00,
2013-09-10 11:29:00,82.6,71.8,30.14,WSW,248,3.5,3.5,70,0.00,CLR,,0.00,WeatherDisplay:10.37,2013-09-10 15:29:00,
2013-09-10 11:35:00,82.5,71.7,30.14,WSW,239,3.0,0.0,70,0.00,CLR,,0.00,WeatherDisplay:10.37,2013-09-10 15:35:00,
2013-09-10 11:40:00,82.6,72.2,30.13,SSW,204,6.0,0.0,71,0.00,CLR,,0.00,WeatherDisplay:10.37,2013-09-10 15:40:00,
2013-09-10 11:44:00,82.6,72.2,30.13,NNE,22,5.8,5.8,71,0.00,CLR,,0.00,WeatherDisplay:10.37,2013-09-10 15:44:00,
2013-09-10 11:50:00,83.4,73.0,30.13,South,174,2.0,0.0,71,0.00,CLR,,0.00,WeatherDisplay:10.37,2013-09-10 15:50:00,
2013-09-10 11:55:00,83.3,72.5,30.13,WSW,238,2.0,0.0,70,0.00,CLR,,0.00,WeatherDisplay:10.37,2013-09-10 15:55:00,
2013-09-10 11:59:00,85.1,73.3,30.13,SW,225,4.6,4.6,68,0.00,CLR,,0.00,WeatherDisplay:10.37,2013-09-10 15:59:00,
2013-09-10 12:04:00,85.6,73.4,30.12,SSW,202,3.5,3.5,67,0.00,CLR,,0.00,WeatherDisplay:10.37,2013-09-10 16:04:00,
2013-09-10 12:09:00,86.5,73.8,30.12,West,270,5.8,5.8,66,0.00,CLR,,0.00,WeatherDisplay:10.37,2013-09-10 16:09:00,
2013-09-10 12:15:00,86.4,73.2,30.12,SW,225,4.6,4.6,65,0.00,CLR,,0.00,WeatherDisplay:10.37,2013-09-10 16:15:00,
2013-09-10 12:20:00,86.4,73.7,30.12,SSW,201,3.0,0.0,66,0.00,CLR,,0.00,WeatherDisplay:10.37,2013-09-10 16:20:00,
2013-09-10 12:25:00,86.6,73.4,30.12,SSW,197,3.0,0.0,65,0.00,CLR,,0.00,WeatherDisplay:10.37,2013-09-10 16:25:00,
2013-09-10 12:30:00,86.9,73.3,30.11,ENE,68,5.8,5.8,64,0.00,CLR,,0.00,WeatherDisplay:10.37,2013-09-10 16:30:00,
2013-09-10 12:35:00,87.9,73.7,30.11,SSW,195,5.0,0.0,63,0.00,CLR,,0.00,WeatherDisplay:10.37,2013-09-10 16:35:00,
2013-09-10 12:39:00,87.6,73.0,30.10,West,270,5.8,5.8,62,0.00,CLR,,0.00,WeatherDisplay:10.37,2013-09-10 16:39:00,
2013-09-10 12:45:00,88.6,73.4,30.10,WSW,243,3.0,0.0,61,0.00,CLR,,0.00,WeatherDisplay:10.37,2013-09-10 16:45:00,
2013-09-10 12:50:00,89.0,73.8,30.10,WSW,237,7.0,0.0,61,0.00,CLR,,0.00,WeatherDisplay:10.37,2013-09-10 16:50:00,
2013-09-10 12:55:00,88.4,73.2,30.09,West,264,5.0,0.0,61,0.00,CLR,,0.00,WeatherDisplay:10.37,2013-09-10 16:55:00,
2013-09-10 13:00:00,89.8,74.1,30.09,SW,226,5.0,0.0,60,0.00,CLR,,0.00,WeatherDisplay:10.37,2013-09-10 17:00:00,
2013-09-10 13:05:00,89.9,73.7,30.10,SSW,209,5.0,0.0,59,0.00,CLR,,0.00,WeatherDisplay:10.37,2013-09-10 17:05:00,
2013-09-10 13:09:00,90.5,74.2,30.10,WSW,248,3.5,3.5,59,0.00,CLR,,0.00,WeatherDisplay:10.37,2013-09-10 17:09:00,
2013-09-10 13:14:00,91.4,74.5,30.10,NNW,338,3.5,3.5,58,0.00,CLR,,0.00,WeatherDisplay:10.37,2013-09-10 17:14:00,
2013-09-10 13:19:00,91.0,74.2,30.10,South,180,5.8,5.8,58,0.00,CLR,,0.00,WeatherDisplay:10.37,2013-09-10 17:19:00,
2013-09-10 13:25:00,91.2,74.4,30.09,East,90,4.6,4.6,58,0.00,CLR,,0.00,WeatherDisplay:10.37,2013-09-10 17:25:00,
2013-09-10 13:30:00,91.2,73.9,30.09,West,259,1.0,0.0,57,0.00,CLR,,0.00,WeatherDisplay:10.37,2013-09-10 17:30:00,
2013-09-10 13:34:00,92.1,74.7,30.09,South,180,6.3,6.3,57,0.00,CLR,,0.00,WeatherDisplay:10.37,2013-09-10 17:34:00,
2013-09-10 13:40:00,91.4,74.0,30.09,South,180,4.6,4.6,57,0.00,CLR,,0.00,WeatherDisplay:10.37,2013-09-10 17:40:00,
2013-09-10 13:45:00,91.8,74.4,30.09,SSW,195,3.0,0.0,57,0.00,CLR,,0.00,WeatherDisplay:10.37,2013-09-10 17:45:00,
2013-09-10 13:49:00,91.6,74.2,30.08,SW,225,8.1,8.1,57,0.00,CLR,,0.00,WeatherDisplay:10.37,2013-09-10 17:49:00,
2013-09-10 13:55:00,91.6,74.2,30.08,SW,218,3.0,0.0,57,0.00,CLR,,0.00,WeatherDisplay:10.37,2013-09-10 17:55:00,
2013-09-10 13:59:00,92.4,74.4,30.08,SSW,197,6.0,0.0,56,0.00,CLR,,0.00,WeatherDisplay:10.37,2013-09-10 17:59:00,
2013-09-10 14:04:00,92.8,74.8,30.08,West,270,2.7,3.0,56,0.00,CLR,,0.00,WeatherDisplay:10.37,2013-09-10 18:04:00,
2013-09-10 14:10:00,92.8,74.8,30.08,SSW,204,3.0,0.0,56,0.00,CLR,,0.00,WeatherDisplay:10.37,2013-09-10 18:10:00,
2013-09-10 14:14:00,92.9,74.4,30.08,SW,235,3.0,0.0,55,0.00,CLR,,0.00,WeatherDisplay:10.37,2013-09-10 18:14:00,
2013-09-10 14:19:00,93.4,74.8,30.08,South,180,5.8,5.8,55,0.00,CLR,,0.00,WeatherDisplay:10.37,2013-09-10 18:19:00,
2013-09-10 14:24:00,93.4,74.8,30.08,WSW,248,5.8,5.8,55,0.00,CLR,,0.00,WeatherDisplay:10.37,2013-09-10 18:24:00,
2013-09-10 14:29:00,93.6,74.5,30.08,NW,315,3.5,3.5,54,0.00,CLR,,0.00,WeatherDisplay:10.37,2013-09-10 18:29:00,
2013-09-10 14:35:00,93.7,74.5,30.08,SSE,165,3.0,0.0,54,0.00,CLR,,0.00,WeatherDisplay:10.37,2013-09-10 18:35:00,
2013-09-10 14:40:00,93.6,74.5,30.07,SSE,162,5.0,0.0,54,0.00,CLR,,0.00,WeatherDisplay:10.37,2013-09-10 18:40:00,
2013-09-10 14:44:00,94.3,75.1,30.07,SE,135,6.9,6.9,54,0.00,CLR,,0.00,WeatherDisplay:10.37,2013-09-10 18:44:00,
2013-09-10 14:50:00,94.1,74.9,30.07,SW,232,3.0,0.0,54,0.00,CLR,,0.00,WeatherDisplay:10.37,2013-09-10 18:50:00,
2013-09-10 14:55:00,94.4,75.2,30.07,West,270,3.0,0.0,54,0.00,CLR,,0.00,WeatherDisplay:10.37,2013-09-10 18:55:00,
2013-09-10 14:59:00,93.4,74.3,30.07,SW,225,4.6,4.6,54,0.00,CLR,,0.00,WeatherDisplay:10.37,2013-09-10 18:59:00,
2013-09-10 15:05:00,93.4,74.3,30.07,NNW,338,5.8,5.8,54,0.00,FEW,,0.00,WeatherDisplay:10.37,2013-09-10 19:05:00,
2013-09-10 15:10:00,93.9,74.7,30.07,NE,45,5.0,0.0,54,0.00,FEW,,0.00,WeatherDisplay:10.37,2013-09-10 19:10:00,
2013-09-10 15:14:00,94.5,75.3,30.08,WNW,292,4.7,4.7,54,0.00,FEW,,0.00,WeatherDisplay:10.37,2013-09-10 19:14:00,
2013-09-10 15:20:00,93.9,74.2,30.08,WNW,285,3.0,0.0,53,0.00,FEW,,0.00,WeatherDisplay:10.37,2013-09-10 19:20:00,
2013-09-10 15:25:00,94.1,74.9,30.08,SW,215,3.0,0.0,54,0.00,FEW,,0.00,WeatherDisplay:10.37,2013-09-10 19:25:00,
2013-09-10 15:30:00,94.3,74.5,30.07,WSW,248,4.6,4.6,53,0.00,FEW,,0.00,WeatherDisplay:10.37,2013-09-10 19:30:00,
2013-09-10 15:35:00,94.4,74.6,30.07,SSW,204,6.0,0.0,53,0.00,FEW,,0.00,WeatherDisplay:10.37,2013-09-10 19:35:00,
2013-09-10 15:39:00,93.7,74.5,30.07,West,270,5.8,5.8,54,0.00,FEW,,0.00,WeatherDisplay:10.37,2013-09-10 19:39:00,
2013-09-10 15:45:00,94.1,74.9,30.07,SSE,158,5.3,5.3,54,0.00,FEW,,0.00,WeatherDisplay:10.37,2013-09-10 19:45:00,
2013-09-10 15:50:00,94.1,74.4,30.07,SSW,195,3.0,0.0,53,0.00,FEW,,0.00,WeatherDisplay:10.37,2013-09-10 19:50:00,
2013-09-10 15:54:00,94.1,74.4,30.07,West,270,4.6,4.6,53,0.00,FEW,,0.00,WeatherDisplay:10.37,2013-09-10 19:54:00,
2013-09-10 16:00:00,93.1,74.0,30.07,SW,218,3.0,0.0,54,0.00,FEW,,0.00,WeatherDisplay:10.37,2013-09-10 20:00:00,
2013-09-10 16:05:00,94.1,74.9,30.07,South,190,3.0,0.0,54,0.00,BKN,,0.00,WeatherDisplay:10.37,2013-09-10 20:05:00,
2013-09-10 16:09:00,94.1,74.4,30.07,SSE,158,5.8,5.8,53,0.00,BKN,,0.00,WeatherDisplay:10.37,2013-09-10 20:09:00,
2013-09-10 16:15:00,93.9,73.6,30.06,SW,220,3.0,0.0,52,0.00,BKN,,0.00,WeatherDisplay:10.37,2013-09-10 20:15:00,
2013-09-10 16:20:00,93.3,73.6,30.06,WSW,244,6.0,0.0,53,0.00,BKN,,0.00,WeatherDisplay:10.37,2013-09-10 20:20:00,
2013-09-10 16:24:00,93.0,73.9,30.06,ESE,112,5.8,5.8,54,0.00,BKN,,0.00,WeatherDisplay:10.37,2013-09-10 20:24:00,
2013-09-10 16:30:00,93.6,74.5,30.06,SW,215,5.0,0.0,54,0.00,BKN,,0.00,WeatherDisplay:10.37,2013-09-10 20:30:00,
2013-09-10 16:34:00,92.8,73.7,30.06,WSW,248,6.9,6.9,54,0.00,BKN,,0.00,WeatherDisplay:10.37,2013-09-10 20:34:00,
2013-09-10 16:39:00,93.3,74.2,30.06,SW,226,2.0,0.0,54,0.00,BKN,,0.00,WeatherDisplay:10.37,2013-09-10 20:39:00,
2013-09-10 16:44:00,93.0,73.9,30.06,SSW,202,7.3,7.3,54,0.00,BKN,,0.00,WeatherDisplay:10.37,2013-09-10 20:44:00,
2013-09-10 16:49:00,93.0,73.9,30.06,SSW,202,5.8,5.8,54,0.00,BKN,,0.00,WeatherDisplay:10.37,2013-09-10 20:49:00,
2013-09-10 16:54:00,93.4,74.3,30.06,SW,225,3.2,3.2,54,0.00,BKN,,0.00,WeatherDisplay:10.37,2013-09-10 20:54:00,
2013-09-10 16:59:00,93.0,74.4,30.06,SW,225,3.5,3.5,55,0.00,BKN,,0.00,WeatherDisplay:10.37,2013-09-10 20:59:00,
2013-09-10 17:04:00,93.6,74.4,30.05,SSW,209,3.0,0.0,54,0.00,BKN,,0.00,WeatherDisplay:10.37,2013-09-10 21:04:00,
2013-09-10 17:09:00,92.7,73.6,30.05,SW,225,8.1,8.1,54,0.00,BKN,,0.00,WeatherDisplay:10.37,2013-09-10 21:09:00,
2013-09-10 17:14:00,92.7,74.2,30.06,SSE,158,5.8,5.8,55,0.00,BKN,,0.00,WeatherDisplay:10.37,2013-09-10 21:14:00,
2013-09-10 17:19:00,92.7,73.6,30.06,SW,220,6.0,0.0,54,0.00,BKN,,0.00,WeatherDisplay:10.37,2013-09-10 21:19:00,
2013-09-10 17:24:00,93.0,74.4,30.06,SW,225,4.7,4.7,55,0.00,BKN,,0.00,WeatherDisplay:10.37,2013-09-10 21:24:00,
2013-09-10 17:29:00,93.7,75.1,30.06,West,270,2.3,2.3,55,0.00,BKN,,0.00,WeatherDisplay:10.37,2013-09-10 21:29:00,
2013-09-10 17:34:00,94.6,75.3,30.06,SW,230,2.0,0.0,54,0.00,BKN,,0.00,WeatherDisplay:10.37,2013-09-10 21:34:00,
2013-09-10 17:39:00,93.6,73.9,30.06,WSW,248,5.8,5.8,53,0.00,BKN,,0.00,WeatherDisplay:10.37,2013-09-10 21:39:00,
2013-09-10 17:44:00,93.9,74.2,30.06,South,180,4.6,4.6,53,0.00,BKN,,0.00,WeatherDisplay:10.37,2013-09-10 21:44:00,
2013-09-10 17:50:00,93.5,74.4,30.06,SW,228,3.0,0.0,54,0.00,BKN,,0.00,WeatherDisplay:10.37,2013-09-10 21:50:00,
2013-09-10 17:54:00,93.0,73.9,30.06,WSW,248,4.6,4.6,54,0.00,BKN,,0.00,WeatherDisplay:10.37,2013-09-10 21:54:00,
2013-09-10 17:59:00,92.7,74.2,30.06,WSW,240,3.0,0.0,55,0.00,BKN,,0.00,WeatherDisplay:10.37,2013-09-10 21:59:00,
2013-09-10 18:04:00,92.5,74.0,30.06,SSW,202,5.8,5.8,55,0.00,CLR,,0.00,WeatherDisplay:10.37,2013-09-10 22:04:00,
2013-09-10 18:09:00,91.9,74.0,30.06,NNW,338,3.5,3.5,56,0.00,CLR,,0.00,WeatherDisplay:10.37,2013-09-10 22:09:00,
2013-09-10 18:14:00,91.9,74.0,30.07,SSW,210,2.0,0.0,56,0.00,CLR,,0.00,WeatherDisplay:10.37,2013-09-10 22:14:00,
2013-09-10 18:19:00,91.8,73.9,30.07,SW,225,3.5,3.5,56,0.00,CLR,,0.00,WeatherDisplay:10.37,2013-09-10 22:19:00,
2013-09-10 18:24:00,91.0,73.7,30.07,SW,233,2.0,0.0,57,0.00,CLR,,0.00,WeatherDisplay:10.37,2013-09-10 22:24:00,
2013-09-10 18:30:00,91.2,73.8,30.07,SW,225,2.0,0.0,57,0.00,CLR,,0.00,WeatherDisplay:10.37,2013-09-10 22:30:00,
2013-09-10 18:35:00,90.9,73.6,30.07,SW,219,1.0,0.0,57,0.00,CLR,,0.00,WeatherDisplay:10.37,2013-09-10 22:35:00,
2013-09-10 18:39:00,90.9,74.1,30.07,South,180,1.2,1.2,58,0.00,CLR,,0.00,WeatherDisplay:10.37,2013-09-10 22:39:00,
2013-09-10 18:44:00,90.4,73.6,30.07,SSW,193,0.0,0.0,58,0.00,CLR,,0.00,WeatherDisplay:10.37,2013-09-10 22:44:00,
2013-09-10 18:49:00,89.6,73.9,30.07,South,180,0.0,0.0,60,0.00,CLR,,0.00,WeatherDisplay:10.37,2013-09-10 22:49:00,
2013-09-10 18:54:00,89.1,74.4,30.07,SSW,201,0.0,0.0,62,0.00,CLR,,0.00,WeatherDisplay:10.37,2013-09-10 22:54:00,
2013-09-10 18:59:00,87.8,74.6,30.07,SSW,202,4.6,4.6,65,0.00,CLR,,0.00,WeatherDisplay:10.37,2013-09-10 22:59:00,
2013-09-10 19:04:00,86.9,74.6,30.08,South,180,3.5,3.5,67,0.00,CLR,,0.00,WeatherDisplay:10.37,2013-09-10 23:04:00,
2013-09-10 19:09:00,86.0,74.6,30.08,South,187,5.0,0.0,69,0.00,CLR,,0.00,WeatherDisplay:10.37,2013-09-10 23:09:00,
2013-09-10 19:14:00,85.6,75.1,30.08,South,180,4.6,4.6,71,0.00,CLR,,0.00,WeatherDisplay:10.37,2013-09-10 23:14:00,
2013-09-10 19:19:00,85.3,75.7,30.08,South,180,4.6,4.6,73,0.00,CLR,,0.00,WeatherDisplay:10.37,2013-09-10 23:19:00,
2013-09-10 19:24:00,84.6,75.4,30.08,South,177,2.0,0.0,74,0.00,CLR,,0.00,WeatherDisplay:10.37,2013-09-10 23:24:00,
2013-09-10 19:29:00,84.0,75.6,30.08,WNW,292,6.9,6.9,76,0.00,CLR,,0.00,WeatherDisplay:10.37,2013-09-10 23:29:00,
2013-09-10 19:34:00,83.8,75.4,30.08,South,180,5.8,6.0,76,0.00,CLR,,0.00,WeatherDisplay:10.37,2013-09-10 23:34:00,
2013-09-10 19:40:00,83.3,75.3,30.08,South,182,3.0,0.0,77,0.00,CLR,,0.00,WeatherDisplay:10.37,2013-09-10 23:40:00,
2013-09-10 19:45:00,83.1,75.5,30.08,SSE,166,2.0,0.0,78,0.00,CLR,,0.00,WeatherDisplay:10.37,2013-09-10 23:45:00,
2013-09-10 19:49:00,82.6,75.0,30.08,South,180,6.9,6.9,78,0.00,CLR,,0.00,WeatherDisplay:10.37,2013-09-10 23:49:00,
2013-09-10 19:54:00,82.4,75.2,30.08,SSW,192,3.0,0.0,79,0.00,CLR,,0.00,WeatherDisplay:10.37,2013-09-10 23:54:00,
2013-09-10 19:59:00,82.0,74.8,30.08,SSE,158,6.3,6.3,79,0.00,CLR,,0.00,WeatherDisplay:10.37,2013-09-10 23:59:00,
2013-09-10 20:04:00,81.9,75.1,30.09,South,178,3.0,0.0,80,0.00,CLR,,0.00,WeatherDisplay:10.37,2013-09-11 00:04:00,
2013-09-10 20:09:00,81.7,74.9,30.09,South,180,10.4,10.4,80,0.00,CLR,,0.00,WeatherDisplay:10.37,2013-09-11 00:09:00,
2013-09-10 20:14:00,81.3,74.9,30.09,SSE,158,8.1,8.1,81,0.00,CLR,,0.00,WeatherDisplay:10.37,2013-09-11 00:14:00,
2013-09-10 20:19:00,81.1,74.7,30.09,SSW,192,5.0,0.0,81,0.00,CLR,,0.00,WeatherDisplay:10.37,2013-09-11 00:19:00,
2013-09-10 20:24:00,81.0,74.6,30.09,West,270,6.9,7.7,81,0.00,CLR,,0.00,WeatherDisplay:10.37,2013-09-11 00:24:00,
2013-09-10 20:29:00,81.0,74.6,30.09,South,180,5.8,5.8,81,0.00,CLR,,0.00,WeatherDisplay:10.37,2013-09-11 00:29:00,
2013-09-10 20:34:00,80.7,74.3,30.09,South,185,6.0,0.0,81,0.00,CLR,,0.00,WeatherDisplay:10.37,2013-09-11 00:34:00,
2013-09-10 20:39:00,80.8,74.4,30.10,SSW,202,4.6,4.6,81,0.00,CLR,,0.00,WeatherDisplay:10.37,2013-09-11 00:39:00,
2013-09-10 20:44:00,80.8,74.4,30.10,SSW,202,4.6,4.6,81,0.00,CLR,,0.00,WeatherDisplay:10.37,2013-09-11 00:44:00,
2013-09-10 20:50:00,80.2,74.2,30.10,SSW,201,3.0,0.0,82,0.00,CLR,,0.00,WeatherDisplay:10.37,2013-09-11 00:50:00,
2013-09-10 20:55:00,80.1,74.1,30.10,SSW,205,5.0,0.0,82,0.00,CLR,,0.00,WeatherDisplay:10.37,2013-09-11 00:55:00,
2013-09-10 20:59:00,80.1,74.1,30.10,SW,227,2.0,0.0,82,0.00,CLR,,0.00,WeatherDisplay:10.37,2013-09-11 00:59:00,
2013-09-10 21:04:00,79.9,74.3,30.11,South,180,5.3,5.3,83,0.00,CLR,,0.00,WeatherDisplay:10.37,2013-09-11 01:04:00,
2013-09-10 21:09:00,79.9,74.3,30.11,SSW,202,5.8,5.9,83,0.00,CLR,,0.00,WeatherDisplay:10.37,2013-09-11 01:09:00,
2013-09-10 21:14:00,79.9,74.3,30.11,SSW,207,5.0,0.0,83,0.00,CLR,,0.00,WeatherDisplay:10.37,2013-09-11 01:14:00,
2013-09-10 21:19:00,79.9,74.3,30.11,SSW,202,8.1,8.1,83,0.00,CLR,,0.00,WeatherDisplay:10.37,2013-09-11 01:19:00,
2013-09-10 21:24:00,79.9,74.3,30.11,WSW,248,5.8,5.8,83,0.00,CLR,,0.00,WeatherDisplay:10.37,2013-09-11 01:24:00,
2013-09-10 21:29:00,79.8,74.2,30.11,WSW,239,6.0,0.0,83,0.00,CLR,,0.00,WeatherDisplay:10.37,2013-09-11 01:29:00,
2013-09-10 21:34:00,79.7,74.1,30.11,SSW,202,4.6,4.6,83,0.00,CLR,,0.00,WeatherDisplay:10.37,2013-09-11 01:34:00,
2013-09-10 21:39:00,79.7,74.1,30.11,South,180,5.8,5.8,83,0.00,CLR,,0.00,WeatherDisplay:10.37,2013-09-11 01:39:00,
2013-09-10 21:44:00,79.7,74.1,30.11,SW,216,5.0,0.0,83,0.00,CLR,,0.00,WeatherDisplay:10.37,2013-09-11 01:44:00,
2013-09-10 21:49:00,79.5,73.9,30.12,South,180,6.3,6.3,83,0.00,CLR,,0.00,WeatherDisplay:10.37,2013-09-11 01:49:00,
2013-09-10 21:54:00,79.5,73.9,30.12,SW,221,2.0,0.0,83,0.00,CLR,,0.00,WeatherDisplay:10.37,2013-09-11 01:54:00,
2013-09-10 21:59:00,79.5,73.9,30.12,WSW,244,3.0,0.0,83,0.00,CLR,,0.00,WeatherDisplay:10.37,2013-09-11 01:59:00,
2013-09-10 22:04:00,79.5,73.9,30.12,WSW,248,3.5,3.5,83,0.00,CLR,,0.00,WeatherDisplay:10.37,2013-09-11 02:04:00,
2013-09-10 22:10:00,79.5,73.9,30.12,SW,227,2.0,0.0,83,0.00,CLR,,0.00,WeatherDisplay:10.37,2013-09-11 02:10:00,
2013-09-10 22:14:00,79.5,73.9,30.12,SW,233,3.0,0.0,83,0.00,CLR,,0.00,WeatherDisplay:10.37,2013-09-11 02:14:00,
2013-09-10 22:19:00,79.5,73.9,30.12,South,180,3.5,3.5,83,0.00,CLR,,0.00,WeatherDisplay:10.37,2013-09-11 02:19:00,
2013-09-10 22:24:00,79.5,73.9,30.12,SW,219,2.0,0.0,83,0.00,CLR,,0.00,WeatherDisplay:10.37,2013-09-11 02:24:00,
2013-09-10 22:29:00,79.5,73.9,30.12,SW,225,2.3,2.3,83,0.00,CLR,,0.00,WeatherDisplay:10.37,2013-09-11 02:29:00,
2013-09-10 22:34:00,79.5,73.9,30.12,SW,226,2.0,0.0,83,0.00,CLR,,0.00,WeatherDisplay:10.37,2013-09-11 02:34:00,
2013-09-10 22:39:00,79.5,73.9,30.13,SW,217,3.0,0.0,83,0.00,CLR,,0.00,WeatherDisplay:10.37,2013-09-11 02:39:00,
2013-09-10 22:44:00,79.5,73.9,30.13,West,270,3.5,3.5,83,0.00,CLR,,0.00,WeatherDisplay:10.37,2013-09-11 02:44:00,
2013-09-10 22:49:00,79.5,73.9,30.13,WSW,237,3.0,0.0,83,0.00,CLR,,0.00,WeatherDisplay:10.37,2013-09-11 02:49:00,
2013-09-10 22:54:00,79.5,73.9,30.13,SW,228,3.0,0.0,83,0.00,CLR,,0.00,WeatherDisplay:10.37,2013-09-11 02:54:00,
2013-09-10 22:59:00,79.5,73.9,30.13,WSW,245,5.0,0.0,83,0.00,CLR,,0.00,WeatherDisplay:10.37,2013-09-11 02:59:00,
2013-09-10 23:04:00,79.7,74.1,30.13,SW,234,2.0,0.0,83,0.00,CLR,,0.00,WeatherDisplay:10.37,2013-09-11 03:04:00,
2013-09-10 23:05:00,79.7,74.1,30.13,SW,225,2.7,2.7,83,0.00,CLR,,0.00,WeatherDisplay:10.37,2013-09-11 03:05:00,
2013-09-10 23:09:00,79.5,73.5,30.13,SW,229,2.0,0.0,82,0.00,CLR,,0.00,WeatherDisplay:10.37,2013-09-11 03:09:00,
2013-09-10 23:14:00,79.5,73.9,30.13,SSE,158,3.5,3.5,83,0.00,CLR,,0.00,WeatherDisplay:10.37,2013-09-11 03:14:00,
2013-09-10 23:19:00,79.8,73.8,30.13,SW,228,2.0,0.0,82,0.00,CLR,,0.00,WeatherDisplay:10.37,2013-09-11 03:19:00,
2013-09-10 23:24:00,79.5,73.5,30.13,South,180,4.6,4.6,82,0.00,CLR,,0.00,WeatherDisplay:10.37,2013-09-11 03:24:00,
2013-09-10 23:29:00,79.5,73.5,30.14,WNW,294,2.0,0.0,82,0.00,CLR,,0.00,WeatherDisplay:10.37,2013-09-11 03:29:00,
2013-09-10 23:34:00,79.4,73.4,30.14,WNW,300,1.0,0.0,82,0.00,CLR,,0.00,WeatherDisplay:10.37,2013-09-11 03:34:00,
2013-09-10 23:39:00,79.3,73.7,30.14,NNW,338,0.0,0.0,83,0.00,CLR,,0.00,WeatherDisplay:10.37,2013-09-11 03:39:00,
2013-09-10 23:44:00,79.0,73.4,30.14,WSW,253,0.0,0.0,83,0.00,CLR,,0.00,WeatherDisplay:10.37,2013-09-11 03:44:00,
2013-09-10 23:49:00,78.8,73.2,30.14,SW,217,0.0,0.0,83,0.00,CLR,,0.00,WeatherDisplay:10.37,2013-09-11 03:49:00,
2013-09-10 23:54:00,78.6,73.0,30.13,South,180,1.2,0.0,83,0.00,CLR,,0.00,WeatherDisplay:10.37,2013-09-11 03:54:00,
2013-09-10 23:59:00,78.6,73.0,30.13,WNW,287,2.0,0.0,83,0.00,CLR,,0.00,WeatherDisplay:10.37,2013-09-11 03:59:00,